createdAt,value
2024-02-13T00:00:19.573Z,95576.00
2024-02-13T00:01:19.656Z,95572.00
2024-02-13T00:02:19.640Z,95571.00
2024-02-13T00:03:19.748Z,95572.00
2024-02-13T00:04:19.613Z,95573.00
2024-02-13T00:05:19.660Z,95575.00
2024-02-13T00:06:19.641Z,95574.00
2024-02-13T00:07:19.689Z,95577.00
2024-02-13T00:08:19.910Z,95576.00
2024-02-13T00:09:19.706Z,95575.00
2024-02-13T00:10:19.672Z,95572.00
2024-02-13T00:11:19.758Z,95572.00
2024-02-13T00:12:19.688Z,95570.00
2024-02-13T00:13:19.702Z,95575.00
2024-02-13T00:14:19.722Z,95575.00
2024-02-13T00:15:19.743Z,95578.00
2024-02-13T00:16:19.822Z,95580.00
2024-02-13T00:17:19.733Z,95582.00
2024-02-13T00:18:19.764Z,95581.00
2024-02-13T00:19:19.819Z,95583.00
2024-02-13T00:20:19.819Z,95587.00
2024-02-13T00:21:19.773Z,95586.00
2024-02-13T00:22:19.798Z,95588.00
2024-02-13T00:23:19.819Z,95589.00
2024-02-13T00:24:19.804Z,95595.00
2024-02-13T00:25:19.940Z,95596.00
2024-02-13T00:26:19.896Z,95600.00
2024-02-13T00:27:19.836Z,95601.00
2024-02-13T00:28:19.836Z,95603.00
2024-02-13T00:29:19.875Z,95603.00
2024-02-13T00:30:19.863Z,95608.00
2024-02-13T00:31:19.883Z,95609.00
2024-02-13T00:32:19.924Z,95610.00
2024-02-13T00:33:19.954Z,95610.00
2024-02-13T00:34:19.938Z,95611.00
2024-02-13T00:35:19.948Z,95610.00
2024-02-13T00:36:19.924Z,95614.00
2024-02-13T00:37:19.898Z,95616.00
2024-02-13T00:38:19.963Z,95618.00
2024-02-13T00:39:19.943Z,95619.00
2024-02-13T00:40:19.926Z,95617.00
2024-02-13T00:41:19.951Z,95620.00
2024-02-13T00:42:19.941Z,95621.00
2024-02-13T00:43:19.934Z,95624.00
2024-02-13T00:44:19.961Z,95629.00
2024-02-13T00:45:19.938Z,95633.00
2024-02-13T00:46:19.966Z,95634.00
2024-02-13T00:47:20.094Z,95634.00
2024-02-13T00:48:20.030Z,95633.00
2024-02-13T00:49:20.022Z,95630.00
2024-02-13T00:50:20.024Z,95629.00
2024-02-13T00:51:19.977Z,95632.00
2024-02-13T00:52:19.993Z,95632.00
2024-02-13T00:53:20.019Z,95633.00
2024-02-13T00:54:20.032Z,95635.00
2024-02-13T00:55:20.015Z,95636.00
2024-02-13T00:56:20.094Z,95640.00
2024-02-13T00:57:20.044Z,95643.00
2024-02-13T00:58:20.071Z,95643.00
2024-02-13T00:59:20.113Z,95646.00
2024-02-13T01:00:20.132Z,95650.00
2024-02-13T01:01:20.156Z,95652.00
2024-02-13T01:02:20.197Z,95655.00
2024-02-13T01:03:20.088Z,95654.00
2024-02-13T01:04:20.177Z,95655.00
2024-02-13T01:05:20.212Z,95656.00
2024-02-13T01:06:20.121Z,95661.00
2024-02-13T01:07:20.108Z,95664.00
2024-02-13T01:08:20.148Z,95667.00
2024-02-13T01:09:20.130Z,95669.00
2024-02-13T01:10:20.155Z,95670.00
2024-02-13T01:11:20.187Z,95667.00
2024-02-13T01:12:20.157Z,95668.00
2024-02-13T01:13:20.152Z,95670.00
2024-02-13T01:14:20.217Z,95675.00
2024-02-13T01:15:20.168Z,95676.00
2024-02-13T01:16:20.178Z,95676.00
2024-02-13T01:17:20.193Z,95679.00
2024-02-13T01:18:20.318Z,95678.00
2024-02-13T01:19:20.216Z,95675.00
2024-02-13T01:20:20.261Z,95673.00
2024-02-13T01:21:20.212Z,95670.00
2024-02-13T01:22:20.241Z,95672.00
2024-02-13T01:23:20.278Z,95676.00
2024-02-13T01:24:20.254Z,95677.00
2024-02-13T01:25:20.260Z,95679.00
2024-02-13T01:26:20.296Z,95682.00
2024-02-13T01:27:20.289Z,95683.00
2024-02-13T01:28:20.295Z,95686.00
2024-02-13T01:29:20.334Z,95688.00
2024-02-13T01:30:20.325Z,95689.00
2024-02-13T01:31:20.335Z,95691.00
2024-02-13T01:32:20.488Z,95688.00
2024-02-13T01:33:20.515Z,95692.00
2024-02-13T01:34:20.384Z,95690.00
2024-02-13T01:35:20.463Z,95693.00
2024-02-13T01:36:20.382Z,95694.00
2024-02-13T01:37:20.404Z,95695.00
2024-02-13T01:38:20.426Z,95695.00
2024-02-13T01:39:20.393Z,95696.00
2024-02-13T01:40:20.439Z,95697.00
2024-02-13T01:41:20.448Z,95699.00
2024-02-13T01:42:20.446Z,95700.00
2024-02-13T01:43:20.457Z,95698.00
2024-02-13T01:44:20.522Z,95699.00
2024-02-13T01:45:20.503Z,95701.00
2024-02-13T01:46:20.502Z,95700.00
2024-02-13T01:47:20.529Z,95703.00
2024-02-13T01:48:20.731Z,95706.00
2024-02-13T01:49:20.586Z,95710.00
2024-02-13T01:50:20.574Z,95711.00
2024-02-13T01:51:20.546Z,95712.00
2024-02-13T01:52:20.562Z,95715.00
2024-02-13T01:53:20.594Z,95719.00
2024-02-13T01:54:20.596Z,95720.00
2024-02-13T01:55:20.594Z,95722.00
2024-02-13T01:56:20.678Z,95722.00
2024-02-13T01:57:20.619Z,95721.00
2024-02-13T01:58:20.637Z,95719.00
2024-02-13T01:59:20.672Z,95719.00
2024-02-13T02:00:20.665Z,95723.00
2024-02-13T02:01:20.669Z,95727.00
2024-02-13T02:02:20.706Z,95729.00
2024-02-13T02:03:20.681Z,95731.00
2024-02-13T02:04:20.701Z,95735.00
2024-02-13T02:05:20.719Z,95736.00
2024-02-13T02:06:20.900Z,95736.00
2024-02-13T02:07:20.763Z,95738.00
2024-02-13T02:08:20.786Z,95737.00
2024-02-13T02:09:20.755Z,95741.00
2024-02-13T02:10:20.769Z,95741.00
2024-02-13T02:11:20.806Z,95743.00
2024-02-13T02:12:20.795Z,95747.00
2024-02-13T02:13:20.809Z,95749.00
2024-02-13T02:14:20.849Z,95750.00
2024-02-13T02:15:20.832Z,95754.00
2024-02-13T02:16:20.874Z,95756.00
2024-02-13T02:17:20.906Z,95760.00
2024-02-13T02:18:20.974Z,95765.00
2024-02-13T02:19:21.028Z,95767.00
2024-02-13T02:20:20.994Z,95769.00
2024-02-13T02:21:20.945Z,95770.00
2024-02-13T02:22:20.978Z,95771.00
2024-02-13T02:23:21.064Z,95774.00
2024-02-13T02:24:21.014Z,95776.00
2024-02-13T02:25:21.026Z,95779.00
2024-02-13T02:26:21.083Z,95780.00
2024-02-13T02:27:21.060Z,95781.00
2024-02-13T02:28:21.085Z,95784.00
2024-02-13T02:29:21.125Z,95783.00
2024-02-13T02:30:21.167Z,95782.00
2024-02-13T02:31:21.134Z,95781.00
2024-02-13T02:32:21.198Z,95782.00
2024-02-13T02:33:21.225Z,95779.00
2024-02-13T02:34:21.277Z,95776.00
2024-02-13T02:35:21.236Z,95777.00
2024-02-13T02:36:21.237Z,95779.00
2024-02-13T02:37:21.245Z,95780.00
2024-02-13T02:38:21.278Z,95779.00
2024-02-13T02:39:21.295Z,95781.00
2024-02-13T02:40:21.309Z,95783.00
2024-02-13T02:41:21.367Z,95784.00
2024-02-13T02:42:21.350Z,95784.00
2024-02-13T02:43:21.468Z,95788.00
2024-02-13T02:44:21.406Z,95789.00
2024-02-13T02:45:21.399Z,95794.00
2024-02-13T02:46:21.428Z,95795.00
2024-02-13T02:47:21.584Z,95798.00
2024-02-13T02:48:21.624Z,95800.00
2024-02-13T02:49:21.515Z,95802.00
2024-02-13T02:50:21.524Z,95802.00
2024-02-13T02:51:21.521Z,95802.00
2024-02-13T02:52:21.550Z,95802.00
2024-02-13T02:53:21.592Z,95802.00
2024-02-13T02:54:21.597Z,95804.00
2024-02-13T02:55:21.605Z,95810.00
2024-02-13T02:56:21.677Z,95814.00
2024-02-13T02:57:21.665Z,95817.00
2024-02-13T02:58:21.702Z,95821.00
2024-02-13T02:59:21.744Z,95821.00
2024-02-13T03:00:21.789Z,95822.00
2024-02-13T03:01:21.757Z,95824.00
2024-02-13T03:02:21.853Z,95825.00
2024-02-13T03:03:21.912Z,95823.00
2024-02-13T03:04:21.853Z,95825.00
2024-02-13T03:05:22.122Z,95821.00
2024-02-13T03:06:21.966Z,95822.00
2024-02-13T03:07:21.921Z,95824.00
2024-02-13T03:08:22.169Z,95825.00
2024-02-13T03:09:21.963Z,95823.00
2024-02-13T03:10:21.987Z,95827.00
2024-02-13T03:11:22.039Z,95828.00
2024-02-13T03:12:22.030Z,95829.00
2024-02-13T03:13:22.037Z,95831.00
2024-02-13T03:14:22.106Z,95835.00
2024-02-13T03:15:22.087Z,95836.00
2024-02-13T03:16:22.121Z,95838.00
2024-02-13T03:17:22.180Z,95839.00
2024-02-13T03:18:22.270Z,95841.00
2024-02-13T03:19:22.198Z,95844.00
2024-02-13T03:20:22.222Z,95847.00
2024-02-13T03:21:22.217Z,95849.00
2024-02-13T03:22:22.238Z,95850.00
2024-02-13T03:23:22.281Z,95852.00
2024-02-13T03:24:22.296Z,95853.00
2024-02-13T03:25:22.337Z,95856.00
2024-02-13T03:26:22.379Z,95855.00
2024-02-13T03:27:22.370Z,95857.00
2024-02-13T03:28:22.409Z,95857.00
2024-02-13T03:29:22.489Z,95861.00
2024-02-13T03:30:22.462Z,95863.00
2024-02-13T03:31:22.481Z,95864.00
2024-02-13T03:32:22.543Z,95867.00
2024-02-13T03:33:22.736Z,95866.00
2024-02-13T03:34:22.712Z,95867.00
2024-02-13T03:35:22.653Z,95867.00
2024-02-13T03:36:22.625Z,95868.00
2024-02-13T03:37:22.738Z,95872.00
2024-02-13T03:38:22.746Z,95872.00
2024-02-13T03:39:22.706Z,95876.00
2024-02-13T03:40:22.719Z,95876.00
2024-02-13T03:41:22.764Z,95879.00
2024-02-13T03:42:22.769Z,95876.00
2024-02-13T03:43:22.784Z,95877.00
2024-02-13T03:44:22.840Z,95876.00
2024-02-13T03:45:22.845Z,95880.00
2024-02-13T03:46:22.858Z,95882.00
2024-02-13T03:47:23.071Z,95881.00
2024-02-13T03:48:23.111Z,95882.00
2024-02-13T03:49:23.052Z,95882.00
2024-02-13T03:50:23.023Z,95882.00
2024-02-13T03:51:22.985Z,95883.00
2024-02-13T03:52:23.011Z,95885.00
2024-02-13T03:53:23.086Z,95884.00
2024-02-13T03:54:23.061Z,95887.00
2024-02-13T03:55:23.064Z,95887.00
2024-02-13T03:56:23.082Z,95889.00
2024-02-13T03:57:23.097Z,95890.00
2024-02-13T03:58:23.137Z,95891.00
2024-02-13T03:59:23.159Z,95890.00
2024-02-13T04:00:23.225Z,95893.00
2024-02-13T04:01:23.189Z,95891.00
2024-02-13T04:02:23.263Z,95892.00
2024-02-13T04:03:23.280Z,95894.00
2024-02-13T04:04:23.283Z,95893.00
2024-02-13T04:05:23.311Z,95895.00
2024-02-13T04:06:23.362Z,95894.00
2024-02-13T04:07:23.335Z,95895.00
2024-02-13T04:08:23.407Z,95899.00
2024-02-13T04:09:23.388Z,95903.00
2024-02-13T04:10:23.401Z,95906.00
2024-02-13T04:11:23.448Z,95907.00
2024-02-13T04:12:23.456Z,95909.00
2024-02-13T04:13:23.471Z,95911.00
2024-02-13T04:14:23.563Z,95908.00
2024-02-13T04:15:23.535Z,95910.00
2024-02-13T04:16:23.566Z,95905.00
2024-02-13T04:17:23.603Z,95906.00
2024-02-13T04:18:23.709Z,95908.00
2024-02-13T04:19:23.658Z,95910.00
2024-02-13T04:20:23.786Z,95910.00
2024-02-13T04:21:23.777Z,95909.00
2024-02-13T04:22:23.766Z,95908.00
2024-02-13T04:23:23.799Z,95906.00
2024-02-13T04:24:23.829Z,95907.00
2024-02-13T04:25:23.873Z,95906.00
2024-02-13T04:26:31.355Z,95907.00
2024-02-13T04:27:24.831Z,95907.00
2024-02-13T04:28:24.040Z,95905.00
2024-02-13T04:29:23.907Z,95908.00
2024-02-13T04:30:23.894Z,95908.00
2024-02-13T04:31:23.846Z,95909.00
2024-02-13T04:32:23.999Z,95910.00
2024-02-13T04:33:24.077Z,95912.00
2024-02-13T04:34:24.032Z,95914.00
2024-02-13T04:35:23.937Z,95918.00
2024-02-13T04:36:24.036Z,95921.00
2024-02-13T04:37:23.901Z,95924.00
2024-02-13T04:38:23.955Z,95927.00
2024-02-13T04:39:23.913Z,95930.00
2024-02-13T04:40:23.893Z,95933.00
2024-02-13T04:41:24.166Z,95934.00
2024-02-13T04:42:23.881Z,95939.00
2024-02-13T04:43:23.889Z,95940.00
2024-02-13T04:44:23.924Z,95943.00
2024-02-13T04:45:23.871Z,95948.00
2024-02-13T04:46:31.105Z,95950.00
2024-02-13T04:47:31.209Z,95954.00
2024-02-13T04:48:31.175Z,95957.00
2024-02-13T04:49:31.123Z,95958.00
2024-02-13T04:50:31.161Z,95960.00
2024-02-13T04:51:31.133Z,95957.00
2024-02-13T04:52:31.112Z,95955.00
2024-02-13T04:53:31.168Z,95952.00
2024-02-13T04:54:31.121Z,95951.00
2024-02-13T04:55:31.135Z,95950.00
2024-02-13T04:56:31.165Z,95951.00
2024-02-13T04:57:31.138Z,95949.00
2024-02-13T04:58:31.142Z,95950.00
2024-02-13T04:59:31.232Z,95951.00
2024-02-13T05:00:31.222Z,95949.00
2024-02-13T05:01:31.170Z,95951.00
2024-02-13T05:02:31.166Z,95947.00
2024-02-13T05:03:31.144Z,95947.00
2024-02-13T05:04:31.197Z,95947.00
2024-02-13T05:05:31.190Z,95945.00
2024-02-13T05:06:31.162Z,95948.00
2024-02-13T05:07:31.163Z,95944.00
2024-02-13T05:08:31.175Z,95946.00
2024-02-13T05:09:31.168Z,95942.00
2024-02-13T05:10:31.157Z,95941.00
2024-02-13T05:11:31.195Z,95942.00
2024-02-13T05:12:31.172Z,95945.00
2024-02-13T05:13:31.174Z,95946.00
2024-02-13T05:14:31.182Z,95946.00
2024-02-13T05:15:31.162Z,95946.00
2024-02-13T05:16:31.156Z,95945.00
2024-02-13T05:17:31.231Z,95946.00
2024-02-13T05:18:31.243Z,95948.00
2024-02-13T05:19:31.208Z,95947.00
2024-02-13T05:20:31.192Z,95949.00
2024-02-13T05:21:31.186Z,95952.00
2024-02-13T05:22:31.166Z,95952.00
2024-02-13T05:23:31.195Z,95954.00
2024-02-13T05:24:31.187Z,95955.00
2024-02-13T05:25:31.186Z,95962.00
2024-02-13T05:26:31.251Z,95961.00
2024-02-13T05:27:31.190Z,95966.00
2024-02-13T05:28:31.282Z,95966.00
2024-02-13T05:29:31.225Z,95968.00
2024-02-13T05:30:31.179Z,95968.00
2024-02-13T05:31:31.186Z,95971.00
2024-02-13T05:32:31.241Z,95973.00
2024-02-13T05:33:31.303Z,95976.00
2024-02-13T05:34:31.324Z,95975.00
2024-02-13T05:35:31.354Z,95976.00
2024-02-13T05:36:31.296Z,95979.00
2024-02-13T05:37:31.369Z,95978.00
2024-02-13T05:38:31.445Z,95978.00
2024-02-13T05:39:31.445Z,95977.00
2024-02-13T05:40:31.418Z,95981.00
2024-02-13T05:41:31.563Z,95983.00
2024-02-13T05:42:31.503Z,95981.00
2024-02-13T05:43:31.540Z,95982.00
2024-02-13T05:44:31.622Z,95986.00
2024-02-13T05:45:31.599Z,95989.00
2024-02-13T05:46:31.670Z,95988.00
2024-02-13T05:47:31.718Z,95993.00
2024-02-13T05:48:31.794Z,95993.00
2024-02-13T05:49:34.304Z,95995.00
2024-02-13T05:50:32.022Z,95996.00
2024-02-13T05:51:32.053Z,95998.00
2024-02-13T05:52:32.048Z,95998.00
2024-02-13T05:53:32.178Z,95998.00
2024-02-13T05:54:32.257Z,95999.00
2024-02-13T05:55:32.188Z,96001.00
2024-02-13T05:56:32.220Z,96002.00
2024-02-13T05:57:32.253Z,96004.00
2024-02-13T05:58:32.287Z,96006.00
2024-02-13T05:59:32.344Z,96008.00
2024-02-13T06:00:32.395Z,96011.00
2024-02-13T06:01:32.500Z,96013.00
2024-02-13T06:02:32.463Z,96014.00
2024-02-13T06:03:32.513Z,96014.00
2024-02-13T06:04:32.489Z,96014.00
2024-02-13T06:05:32.670Z,96012.00
2024-02-13T06:06:32.731Z,96010.00
2024-02-13T06:07:32.607Z,96008.00
2024-02-13T06:08:32.653Z,96010.00
2024-02-13T06:09:32.695Z,96012.00
2024-02-13T06:10:32.717Z,96015.00
2024-02-13T06:11:33.621Z,96017.00
2024-02-13T06:12:32.756Z,96017.00
2024-02-13T06:13:32.798Z,96022.00
2024-02-13T06:14:32.868Z,96025.00
2024-02-13T06:15:32.879Z,96028.00
2024-02-13T06:16:32.903Z,96029.00
2024-02-13T06:17:32.984Z,96035.00
2024-02-13T06:18:33.098Z,96039.00
2024-02-13T06:19:33.119Z,96040.00
2024-02-13T06:20:33.052Z,96040.00
2024-02-13T06:21:33.078Z,96041.00
2024-02-13T06:22:33.100Z,96043.00
2024-02-13T06:23:33.179Z,96042.00
2024-02-13T06:24:33.185Z,96044.00
2024-02-13T06:25:33.222Z,96047.00
2024-02-13T06:26:33.279Z,96053.00
2024-02-13T06:27:33.294Z,96055.00
2024-02-13T06:28:33.336Z,96060.00
2024-02-13T06:29:33.424Z,96060.00
2024-02-13T06:30:33.470Z,96064.00
2024-02-13T06:31:33.462Z,96066.00
2024-02-13T06:32:33.555Z,96066.00
2024-02-13T06:33:33.652Z,96063.00
2024-02-13T06:34:33.574Z,96063.00
2024-02-13T06:35:33.618Z,96062.00
2024-02-13T06:36:33.664Z,96060.00
2024-02-13T06:37:33.701Z,96058.00
2024-02-13T06:38:33.778Z,96061.00
2024-02-13T06:39:33.791Z,96062.00
2024-02-13T06:40:33.826Z,96068.00
2024-02-13T06:41:33.884Z,96069.00
2024-02-13T06:42:33.926Z,96071.00
2024-02-13T06:43:33.948Z,96071.00
2024-02-13T06:44:34.019Z,96074.00
2024-02-13T06:45:34.031Z,96072.00
2024-02-13T06:46:34.130Z,96073.00
2024-02-13T06:47:34.181Z,96071.00
2024-02-13T06:48:34.727Z,96074.00
2024-02-13T06:49:39.236Z,96072.00
2024-02-13T06:50:34.273Z,96074.00
2024-02-13T06:51:34.214Z,96076.00
2024-02-13T06:52:34.189Z,96078.00
2024-02-13T06:53:34.209Z,96078.00
2024-02-13T06:54:39.318Z,96079.00
2024-02-13T06:55:34.194Z,96080.00
2024-02-13T06:56:34.202Z,96079.00
2024-02-13T06:57:34.207Z,96079.00
2024-02-13T06:58:34.208Z,96080.00
2024-02-13T06:59:39.267Z,96077.00
2024-02-13T07:00:34.237Z,96075.00
2024-02-13T07:01:34.257Z,96076.00
2024-02-13T07:02:34.242Z,96075.00
2024-02-13T07:03:34.274Z,96076.00
2024-02-13T07:04:34.224Z,96078.00
2024-02-13T07:05:34.273Z,96080.00
2024-02-13T07:06:43.891Z,96082.00
2024-02-13T07:07:42.368Z,96084.00
2024-02-13T07:08:35.287Z,96082.00
2024-02-13T07:09:34.506Z,96084.00
2024-02-13T07:10:34.296Z,96084.00
2024-02-13T07:11:34.252Z,96083.00
2024-02-13T07:12:34.263Z,96085.00
2024-02-13T07:13:34.241Z,96086.00
2024-02-13T07:14:39.305Z,96086.00
2024-02-13T07:15:34.409Z,96089.00
2024-02-13T07:16:40.230Z,96089.00
2024-02-13T07:17:45.252Z,96090.00
2024-02-13T07:18:35.348Z,96093.00
2024-02-13T07:19:34.391Z,96094.00
2024-02-13T07:20:34.343Z,96095.00
2024-02-13T07:21:34.319Z,96096.00
2024-02-13T07:22:34.293Z,96099.00
2024-02-13T07:23:34.310Z,96101.00
2024-02-13T07:24:34.288Z,96102.00
2024-02-13T07:25:34.267Z,96101.00
2024-02-13T07:26:34.282Z,96103.00
2024-02-13T07:27:34.266Z,96103.00
2024-02-13T07:28:34.267Z,96102.00
2024-02-13T07:29:34.344Z,96103.00
2024-02-13T07:30:34.264Z,96106.00
2024-02-13T07:31:34.333Z,96105.00
2024-02-13T07:32:34.347Z,96105.00
2024-02-13T07:33:34.412Z,96106.00
2024-02-13T07:34:34.281Z,96105.00
2024-02-13T07:35:34.317Z,96104.00
2024-02-13T07:36:34.347Z,96103.00
2024-02-13T07:37:34.341Z,96099.00
2024-02-13T07:38:34.296Z,96103.00
2024-02-13T07:39:34.272Z,96104.00
2024-02-13T07:40:34.285Z,96107.00
2024-02-13T07:41:34.292Z,96106.00
2024-02-13T07:42:34.269Z,96105.00
2024-02-13T07:43:34.281Z,96106.00
2024-02-13T07:44:34.312Z,96105.00
2024-02-13T07:45:34.288Z,96108.00
2024-02-13T07:46:34.283Z,96109.00
2024-02-13T07:47:34.365Z,96110.00
2024-02-13T07:48:34.437Z,96114.00
2024-02-13T07:49:34.406Z,96117.00
2024-02-13T07:50:34.297Z,96120.00
2024-02-13T07:51:34.289Z,96121.00
2024-02-13T07:52:34.323Z,96124.00
2024-02-13T07:53:34.343Z,96125.00
2024-02-13T07:54:34.298Z,96124.00
2024-02-13T07:55:34.313Z,96124.00
2024-02-13T07:56:34.348Z,96121.00
2024-02-13T07:57:34.295Z,96122.00
2024-02-13T07:58:34.296Z,96124.00
2024-02-13T07:59:39.360Z,96123.00
2024-02-13T08:00:34.327Z,96125.00
2024-02-13T08:01:34.314Z,96126.00
2024-02-13T08:02:34.326Z,96125.00
2024-02-13T08:03:34.814Z,96123.00
2024-02-13T08:04:34.367Z,96123.00
2024-02-13T08:05:34.392Z,96124.00
2024-02-13T08:06:34.403Z,96123.00
2024-02-13T08:07:34.320Z,96120.00
2024-02-13T08:08:34.386Z,96120.00
2024-02-13T08:09:34.357Z,96121.00
2024-02-13T08:10:34.311Z,96120.00
2024-02-13T08:11:34.338Z,96121.00
2024-02-13T08:12:34.335Z,96123.00
2024-02-13T08:13:34.353Z,96127.00
2024-02-13T08:14:39.473Z,96129.00
2024-02-13T08:15:34.350Z,96129.00
2024-02-13T08:16:36.691Z,96130.00
2024-02-13T08:17:34.422Z,96130.00
2024-02-13T08:18:34.370Z,96128.00
2024-02-13T08:19:39.566Z,96129.00
2024-02-13T08:20:34.533Z,96129.00
2024-02-13T08:21:34.360Z,96131.00
2024-02-13T08:22:34.352Z,96133.00
2024-02-13T08:23:34.402Z,96134.00
2024-02-13T08:24:34.373Z,96136.00
2024-02-13T08:25:34.379Z,96138.00
2024-02-13T08:26:34.375Z,96136.00
2024-02-13T08:27:34.364Z,96138.00
2024-02-13T08:28:34.367Z,96135.00
2024-02-13T08:29:34.629Z,96135.00
2024-02-13T08:30:34.413Z,96135.00
2024-02-13T08:31:34.462Z,96135.00
2024-02-13T08:32:34.566Z,96138.00
2024-02-13T08:33:34.881Z,96137.00
2024-02-13T08:34:34.654Z,96139.00
2024-02-13T08:35:34.790Z,96139.00
2024-02-13T08:36:34.640Z,96139.00
2024-02-13T08:37:34.625Z,96140.00
2024-02-13T08:38:34.669Z,96139.00
2024-02-13T08:39:34.675Z,96141.00
2024-02-13T08:40:34.706Z,96142.00
2024-02-13T08:41:34.887Z,96142.00
2024-02-13T08:42:34.755Z,96143.00
2024-02-13T08:43:34.795Z,96141.00
2024-02-13T08:44:34.846Z,96139.00
2024-02-13T08:45:34.844Z,96141.00
2024-02-13T08:46:34.857Z,96140.00
2024-02-13T08:47:35.066Z,96138.00
2024-02-13T08:48:35.018Z,96136.00
2024-02-13T08:49:35.167Z,96138.00
2024-02-13T08:50:35.017Z,96140.00
2024-02-13T08:51:37.872Z,96140.00
2024-02-13T08:52:34.998Z,96140.00
2024-02-13T08:53:35.041Z,96142.00
2024-02-13T08:54:35.009Z,96141.00
2024-02-13T08:55:35.010Z,96142.00
2024-02-13T08:56:35.091Z,96143.00
2024-02-13T08:57:34.993Z,96143.00
2024-02-13T08:58:35.009Z,96143.00
2024-02-13T08:59:35.020Z,96142.00
2024-02-13T09:00:35.011Z,96141.00
2024-02-13T09:01:35.023Z,96144.00
2024-02-13T09:02:35.063Z,96145.00
2024-02-13T09:03:35.027Z,96146.00
2024-02-13T09:04:35.055Z,96148.00
2024-02-13T09:05:35.119Z,96149.00
2024-02-13T09:06:35.407Z,96149.00
2024-02-13T09:07:35.012Z,96149.00
2024-02-13T09:08:35.019Z,96150.00
2024-02-13T09:09:35.009Z,96149.00
2024-02-13T09:10:35.010Z,96150.00
2024-02-13T09:11:35.051Z,96153.00
2024-02-13T09:12:35.086Z,96153.00
2024-02-13T09:13:35.031Z,96153.00
2024-02-13T09:14:35.148Z,96156.00
2024-02-13T09:15:35.015Z,96159.00
2024-02-13T09:16:35.027Z,96158.00
2024-02-13T09:17:35.071Z,96158.00
2024-02-13T09:18:35.084Z,96160.00
2024-02-13T09:19:40.249Z,96161.00
2024-02-13T09:20:47.533Z,96159.00
2024-02-13T09:21:47.535Z,96162.00
2024-02-13T09:22:47.538Z,96163.00
2024-02-13T09:23:47.557Z,96162.00
2024-02-13T09:24:47.537Z,96162.00
2024-02-13T09:25:47.539Z,96162.00
2024-02-13T09:26:47.543Z,96160.00
2024-02-13T09:27:47.548Z,96159.00
2024-02-13T09:28:47.550Z,96158.00
2024-02-13T09:29:47.604Z,96156.00
2024-02-13T09:30:47.562Z,96155.00
2024-02-13T09:31:47.940Z,96156.00
2024-02-13T09:32:47.807Z,96155.00
2024-02-13T09:33:47.800Z,96156.00
2024-02-13T09:34:47.600Z,96154.00
2024-02-13T09:35:47.570Z,96156.00
2024-02-13T09:36:47.547Z,96157.00
2024-02-13T09:37:47.554Z,96156.00
2024-02-13T09:38:47.564Z,96157.00
2024-02-13T09:39:47.553Z,96159.00
2024-02-13T09:40:47.556Z,96158.00
2024-02-13T09:41:47.587Z,96157.00
2024-02-13T09:42:47.566Z,96158.00
2024-02-13T09:43:49.343Z,96158.00
2024-02-13T09:44:47.570Z,96157.00
2024-02-13T09:45:47.581Z,96157.00
2024-02-13T09:46:47.567Z,96157.00
2024-02-13T09:47:47.730Z,96161.00
2024-02-13T09:48:47.695Z,96160.00
2024-02-13T09:49:47.697Z,96158.00
2024-02-13T09:50:47.656Z,96162.00
2024-02-13T09:51:47.570Z,96161.00
2024-02-13T09:52:47.672Z,96159.00
2024-02-13T09:53:47.652Z,96160.00
2024-02-13T09:54:47.587Z,96159.00
2024-02-13T09:55:47.579Z,96159.00
2024-02-13T09:56:47.620Z,96158.00
2024-02-13T09:57:47.586Z,96162.00
2024-02-13T09:58:47.580Z,96164.00
2024-02-13T09:59:47.617Z,96164.00
2024-02-13T10:00:47.624Z,96165.00
2024-02-13T10:01:47.585Z,96164.00
2024-02-13T10:02:47.716Z,96160.00
2024-02-13T10:03:47.630Z,96161.00
2024-02-13T10:04:47.627Z,96162.00
2024-02-13T10:05:47.897Z,96159.00
2024-02-13T10:06:47.759Z,96162.00
2024-02-13T10:07:47.591Z,96163.00
2024-02-13T10:08:47.623Z,96164.00
2024-02-13T10:09:47.584Z,96166.00
2024-02-13T10:10:47.601Z,96166.00
2024-02-13T10:11:47.632Z,96167.00
2024-02-13T10:12:47.600Z,96166.00
2024-02-13T10:13:48.491Z,96167.00
2024-02-13T10:14:47.618Z,96167.00
2024-02-13T10:15:47.597Z,96166.00
2024-02-13T10:16:47.598Z,96168.00
2024-02-13T10:17:47.646Z,96167.00
2024-02-13T10:18:47.646Z,96168.00
2024-02-13T10:19:47.719Z,96168.00
2024-02-13T10:20:47.663Z,96169.00
2024-02-13T10:21:47.607Z,96169.00
2024-02-13T10:22:47.671Z,96167.00
2024-02-13T10:23:47.718Z,96165.00
2024-02-13T10:24:47.616Z,96164.00
2024-02-13T10:25:47.612Z,96165.00
2024-02-13T10:26:47.625Z,96164.00
2024-02-13T10:27:47.597Z,96163.00
2024-02-13T10:28:47.605Z,96163.00
2024-02-13T10:29:47.684Z,96163.00
2024-02-13T10:30:47.632Z,96160.00
2024-02-13T10:31:47.613Z,96162.00
2024-02-13T10:32:47.689Z,96160.00
2024-02-13T10:33:47.630Z,96159.00
2024-02-13T10:34:47.657Z,96161.00
2024-02-13T10:35:47.687Z,96160.00
2024-02-13T10:36:47.618Z,96159.00
2024-02-13T10:37:47.623Z,96158.00
2024-02-13T10:38:47.648Z,96161.00
2024-02-13T10:39:47.614Z,96156.00
2024-02-13T10:40:47.625Z,96156.00
2024-02-13T10:41:47.695Z,96154.00
2024-02-13T10:42:47.629Z,96151.00
2024-02-13T10:43:47.634Z,96150.00
2024-02-13T10:44:47.675Z,96149.00
2024-02-13T10:45:47.669Z,96147.00
2024-02-13T10:46:47.634Z,96146.00
2024-02-13T10:47:47.678Z,96146.00
2024-02-13T10:48:47.832Z,96144.00
2024-02-13T10:49:47.666Z,96141.00
2024-02-13T10:50:47.693Z,96139.00
2024-02-13T10:51:47.646Z,96139.00
2024-02-13T10:52:47.657Z,96139.00
2024-02-13T10:53:47.659Z,96137.00
2024-02-13T10:54:47.898Z,96141.00
2024-02-13T10:55:47.638Z,96138.00
2024-02-13T10:56:47.877Z,96140.00
2024-02-13T10:57:47.646Z,96137.00
2024-02-13T10:58:47.841Z,96137.00
2024-02-13T10:59:47.702Z,96136.00
2024-02-13T11:00:47.725Z,96139.00
2024-02-13T11:01:47.825Z,96135.00
2024-02-13T11:02:47.704Z,96137.00
2024-02-13T11:03:47.858Z,96136.00
2024-02-13T11:04:47.728Z,96136.00
2024-02-13T11:05:47.763Z,96138.00
2024-02-13T11:06:47.720Z,96135.00
2024-02-13T11:07:47.673Z,96136.00
2024-02-13T11:08:47.670Z,96137.00
2024-02-13T11:09:47.713Z,96136.00
2024-02-13T11:10:47.670Z,96134.00
2024-02-13T11:11:47.690Z,96134.00
2024-02-13T11:12:47.661Z,96134.00
2024-02-13T11:13:47.652Z,96132.00
2024-02-13T11:14:47.725Z,96130.00
2024-02-13T11:15:47.644Z,96129.00
2024-02-13T11:16:47.660Z,96127.00
2024-02-13T11:17:47.729Z,96125.00
2024-02-13T11:18:47.787Z,96130.00
2024-02-13T11:19:47.886Z,96130.00
2024-02-13T11:20:47.759Z,96131.00
2024-02-13T11:21:47.653Z,96132.00
2024-02-13T11:22:47.721Z,96133.00
2024-02-13T11:23:47.694Z,96135.00
2024-02-13T11:24:47.663Z,96135.00
2024-02-13T11:25:47.664Z,96131.00
2024-02-13T11:26:47.787Z,96129.00
2024-02-13T11:27:47.692Z,96129.00
2024-02-13T11:28:47.668Z,96125.00
2024-02-13T11:29:47.695Z,96123.00
2024-02-13T11:30:47.667Z,96119.00
2024-02-13T11:31:47.666Z,96119.00
2024-02-13T11:32:47.874Z,96121.00
2024-02-13T11:33:48.091Z,96121.00
2024-02-13T11:34:47.882Z,96120.00
2024-02-13T11:35:47.913Z,96123.00
2024-02-13T11:36:47.703Z,96122.00
2024-02-13T11:37:47.691Z,96125.00
2024-02-13T11:38:47.753Z,96124.00
2024-02-13T11:39:47.722Z,96122.00
2024-02-13T11:40:47.728Z,96122.00
2024-02-13T11:41:47.782Z,96123.00
2024-02-13T11:42:47.766Z,96121.00
2024-02-13T11:43:47.760Z,96122.00
2024-02-13T11:44:47.829Z,96121.00